Time;durP1;ratioP1;P1;durP2;ratioP2;P2;SDS_P1;SDS_P2;PMS_P1;PMS_P2;Temp;Humidity;BMP_temperature;BMP_pressure;BME280_temperature;BME280_humidity;BME280_pressure;Samples;Min_cycle;Max_cycle;Signal;HPM_P1;HPM_P2
2023/01/16 00:01:44;;;;;;;16.95;6.72;;;;;;;7.54;71.42;97990.19;4424452;32;20421;-83
2023/01/16 00:04:10;;;;;;;18.35;6.82;;;;;;;7.54;71.19;97986.75;4424426;32;20163;-83
2023/01/16 00:06:35;;;;;;;16.30;6.53;;;;;;;7.40;71.72;97979.66;4422960;32;20490;-83
2023/01/16 00:09:02;;;;;;;15.05;6.20;;;;;;;7.56;71.07;97975.22;4423879;32;20126;-82
2023/01/16 00:11:27;;;;;;;16.48;7.03;;;;;;;7.53;70.66;97970.16;4425573;32;20465;-83
2023/01/16 00:13:53;;;;;;;16.67;7.20;;;;;;;7.45;71.07;97977.59;4439642;32;20116;-83
2023/01/16 00:16:20;;;;;;;19.02;6.82;;;;;;;7.95;69.91;97973.91;4425646;32;20112;-84
2023/01/16 00:18:46;;;;;;;15.13;6.90;;;;;;;8.37;68.22;97980.25;4439492;32;20444;-84
2023/01/16 00:21:17;;;;;;;17.15;7.57;;;;;;;8.19;68.40;97973.44;4439449;32;20120;-84
2023/01/16 00:23:42;;;;;;;18.15;7.43;;;;;;;8.37;67.42;97956.63;4439556;32;20100;-84
2023/01/16 00:26:11;;;;;;;16.45;7.18;;;;;;;8.52;67.29;97959.31;4425642;32;20123;-84
2023/01/16 00:28:37;;;;;;;;;;;;;;;8.40;67.62;97963.47;4425788;32;20107;-84
2023/01/16 00:33:38;;;;;;;17.98;7.78;;;;;;;8.73;66.43;97962.44;4426251;32;20490;-82
2023/01/16 00:36:04;;;;;;;16.67;7.40;;;;;;;8.80;66.07;97954.09;4412710;32;20093;-82
2023/01/16 00:38:32;;;;;;;16.50;7.28;;;;;;;8.56;66.53;97966.09;4439200;32;20134;-84
2023/01/16 00:40:57;;;;;;;19.65;8.55;;;;;;;8.89;65.82;97957.94;4412484;32;20109;-84
2023/01/16 00:43:23;;;;;;;17.60;7.22;;;;;;;8.77;65.99;97950.78;4439219;32;20142;-84
2023/01/16 00:45:49;;;;;;;18.27;7.12;;;;;;;8.86;65.62;97947.62;4412406;32;20225;-84
2023/01/16 00:48:15;;;;;;;16.58;7.75;;;;;;;8.79;65.87;97946.31;4424800;32;20092;-84
2023/01/16 00:50:42;;;;;;;15.45;7.05;;;;;;;8.94;65.26;97949.78;4412146;32;20162;-84
2023/01/16 00:53:07;;;;;;;16.67;7.93;;;;;;;8.90;65.45;97945.66;4425239;32;20089;-83
2023/01/16 00:55:33;;;;;;;19.60;7.75;;;;;;;8.86;65.47;97947.62;4439220;32;20108;-83
2023/01/16 00:57:59;;;;;;;17.50;7.50;;;;;;;8.91;65.31;97944.72;4439249;32;20147;-83
2023/01/16 01:00:25;;;;;;;17.92;7.60;;;;;;;8.60;66.18;97950.06;4439116;32;20432;-83
2023/01/16 01:02:50;;;;;;;19.12;8.10;;;;;;;8.99;64.84;97943.31;4439252;32;20093;-83
2023/01/16 01:05:16;;;;;;;19.05;6.80;;;;;;;8.95;64.91;97936.56;4438756;32;20093;-83
2023/01/16 01:07:42;;;;;;;17.12;7.40;;;;;;;8.84;65.27;97944.25;4438796;32;20452;-83
2023/01/16 01:10:08;;;;;;;16.90;7.07;;;;;;;8.68;66.00;97946.13;4438586;32;20109;-83
2023/01/16 01:12:34;;;;;;;18.02;7.65;;;;;;;8.80;65.63;97946.22;4438837;32;20085;-83
2023/01/16 01:14:59;;;;;;;17.95;7.37;;;;;;;8.65;65.95;97941.88;4438771;32;20362;-84
2023/01/16 01:17:24;;;;;;;14.77;6.22;;;;;;;8.45;66.96;97929.97;4438583;32;20093;-84
2023/01/16 01:19:50;;;;;;;16.75;6.97;;;;;;;8.56;66.77;97929.34;4439643;32;20093;-84
2023/01/16 01:22:16;;;;;;;15.68;6.62;;;;;;;8.56;66.25;97927.53;4440932;32;20105;-84
2023/01/16 01:24:42;;;;;;;16.40;7.00;;;;;;;8.55;66.64;97933.72;4440930;32;20081;-84
2023/01/16 01:27:07;;;;;;;14.70;5.85;;;;;;;8.61;66.41;97928.09;4440760;32;20148;-84
2023/01/16 01:29:33;;;;;;;14.60;6.22;;;;;;;7.94;68.53;97935.53;4440927;32;20442;-84
2023/01/16 01:31:58;;;;;;;13.98;5.28;;;;;;;8.35;67.59;97928.81;4440806;32;20416;-84
2023/01/16 01:34:24;;;;;;;13.43;5.65;;;;;;;8.44;67.25;97910.75;4440934;32;20112;-84
2023/01/16 01:36:49;;;;;;;15.43;5.60;;;;;;;8.57;66.62;97902.12;4440817;32;20086;-84
2023/01/16 01:39:15;;;;;;;14.38;5.87;;;;;;;8.44;67.09;97897.63;4440611;32;20124;-84
2023/01/16 01:41:40;;;;;;;13.73;5.72;;;;;;;8.52;66.97;97907.66;4440883;32;20353;-83
2023/01/16 01:44:43;;;;;;;15.35;6.03;;;;;;;8.52;66.93;97906.81;4440736;32;20081;-83
2023/01/16 01:47:09;;;;;;;15.63;6.30;;;;;;;8.72;66.27;97903.81;4440840;32;20694;-83
2023/01/16 01:49:34;;;;;;;14.77;5.90;;;;;;;8.64;66.60;97906.09;4414142;32;20167;-83
2023/01/16 01:52:03;;;;;;;12.10;4.87;;;;;;;8.55;66.84;97911.88;4426861;32;20104;-83
2023/01/16 01:54:42;;;;;;;14.15;5.45;;;;;;;7.99;68.62;97925.59;4426975;32;20089;-84
2023/01/16 01:57:38;;;;;;;15.57;5.57;;;;;;;7.64;70.43;97927.63;4440861;32;20564;-83
2023/01/16 02:00:08;;;;;;;14.60;5.90;;;;;;;8.31;67.68;97922.88;4414220;32;20102;-84
2023/01/16 02:02:35;;;;;;;13.57;5.47;;;;;;;8.57;66.56;97923.13;4426614;32;20448;-83
2023/01/16 02:05:04;;;;;;;13.10;5.32;;;;;;;8.46;66.92;97914.13;4426966;32;20142;-83
2023/01/16 02:07:29;;;;;;;13.68;5.25;;;;;;;8.58;66.42;97907.28;4426962;32;20085;-84
2023/01/16 02:10:11;;;;;;;13.38;5.55;;;;;;;8.65;65.84;97900.75;4440728;32;20101;-84
2023/01/16 02:12:37;;;;;;;13.23;5.78;;;;;;;8.58;65.94;97907.28;4426876;32;20257;-83
2023/01/16 02:15:03;;;;;;;14.23;5.47;;;;;;;8.64;65.83;97904.28;4440822;32;20127;-82
2023/01/16 02:20:32;;;;;;;14.25;5.47;;;;;;;8.53;65.60;97887.50;4440665;32;20123;-83
2023/01/16 02:22:58;;;;;;;15.70;6.20;;;;;;;8.87;65.01;97883.66;4413431;32;20180;-83
2023/01/16 02:25:41;;;;;;;15.45;6.07;;;;;;;8.77;65.13;97879.91;4440577;32;20080;-82
2023/01/16 02:28:31;;;;;;;14.60;5.78;;;;;;;9.00;64.43;97874.06;4440440;32;20103;-83
2023/01/16 02:31:24;;;;;;;15.10;6.65;;;;;;;9.01;64.42;97874.91;4440385;32;20098;-82
2023/01/16 02:33:58;;;;;;;13.88;5.90;;;;;;;9.06;63.86;97864.97;4440434;32;20104;-83
2023/01/16 02:36:37;;;;;;;15.70;6.65;;;;;;;8.84;64.37;97853.16;4440578;32;20085;-82
2023/01/16 02:39:13;;;;;;;14.80;6.43;;;;;;;8.63;64.41;97859.75;4426438;32;20437;-82
2023/01/16 02:41:44;;;;;;;14.98;6.12;;;;;;;8.32;65.62;97858.94;4440559;32;20109;-83
2023/01/16 02:44:58;;;;;;;15.52;7.07;;;;;;;8.59;64.86;97845.97;4440500;32;20157;-83
2023/01/16 02:47:36;;;;;;;17.23;6.80;;;;;;;8.37;65.42;97841.16;4392301;32;20151;-82
2023/01/16 02:50:11;;;;;;;;;;;;;;;8.43;65.14;97838.19;4392817;32;20082;-82
2023/01/16 02:53:11;;;;;;;16.80;6.82;;;;;;;8.75;64.22;97832.75;4392399;32;20116;-82
2023/01/16 02:55:41;;;;;;;17.45;7.20;;;;;;;8.89;63.83;97836.28;4392443;32;20552;-82
2023/01/16 02:58:07;;;;;;;17.00;6.97;;;;;;;8.71;64.17;97840.91;4379651;32;20185;-82
2023/01/16 03:00:36;;;;;;;16.02;6.93;;;;;;;8.95;63.78;97846.41;4392316;32;20117;-82
2023/01/16 03:03:04;;;;;;;17.42;7.60;;;;;;;9.02;63.56;97848.56;4380056;32;20552;-83
2023/01/16 03:05:37;;;;;;;19.25;8.00;;;;;;;9.10;63.55;97834.06;4379631;32;20462;-83
2023/01/16 03:08:52;;;;;;;19.55;8.38;;;;;;;9.19;63.49;97834.34;4366898;32;20224;-83
2023/01/16 03:11:25;;;;;;;19.70;8.90;;;;;;;9.28;63.51;97837.31;4347203;33;20095;-82
2023/01/16 03:14:11;;;;;;;19.05;8.13;;;;;;;9.37;63.33;97815.69;4347372;33;20162;-83
2023/01/16 03:17:03;;;;;;;17.85;7.75;;;;;;;9.32;63.48;97804.63;4334920;33;20145;-83
2023/01/16 03:19:32;;;;;;;20.05;8.90;;;;;;;8.98;64.08;97802.41;4347461;33;20118;-83
2023/01/16 03:22:06;;;;;;;23.58;10.15;;;;;;;8.85;64.44;97797.06;4347349;33;20316;-82
2023/01/16 03:24:58;;;;;;;23.23;9.55;;;;;;;8.26;66.06;97807.69;4347178;33;20103;-83
2023/01/16 03:27:47;;;;;;;24.30;10.20;;;;;;;8.64;65.29;97796.66;4335094;33;20468;-82
2023/01/16 03:30:15;;;;;;;;;;;;;;;8.71;65.16;97798.87;4347598;33;20117;-82
2023/01/16 03:32:50;;;;;;;24.90;10.52;;;;;;;8.83;64.76;97792.88;4347365;33;19990;-82
2023/01/16 03:35:21;;;;;;;25.50;11.05;;;;;;;8.71;65.06;97797.13;4347196;33;20135;-82
2023/01/16 03:37:53;;;;;;;26.98;11.35;;;;;;;8.56;65.51;97793.66;4347473;33;20162;-82
2023/01/16 03:40:26;;;;;;;25.50;11.00;;;;;;;8.35;65.80;97781.84;4334628;33;20361;-82
2023/01/16 03:43:25;;;;;;;23.52;11.05;;;;;;;8.44;65.87;97779.53;4368960;32;20098;-82
2023/01/16 03:46:13;;;;;;;30.45;11.65;;;;;;;8.57;65.51;97776.13;4376913;32;20105;-83
2023/01/16 03:48:53;;;;;;;30.10;11.95;;;;;;;8.65;65.34;97773.84;4376883;32;20470;-83
2023/01/16 03:51:27;;;;;;;26.65;11.55;;;;;;;8.70;65.43;97773.59;4376776;32;20103;-82
2023/01/16 03:54:11;;;;;;;28.80;11.75;;;;;;;8.50;65.82;97773.06;4377112;32;20534;-83
2023/01/16 03:56:46;;;;;;;29.83;11.80;;;;;;;8.77;65.20;97756.47;4376597;32;20284;-82
2023/01/16 03:59:12;;;;;;;28.15;12.30;;;;;;;8.95;64.74;97743.97;4376947;32;20118;-83
2023/01/16 04:02:04;;;;;;;30.02;11.95;;;;;;;9.02;64.54;97742.59;4376758;32;20102;-84
2023/01/16 04:04:54;;;;;;;27.73;11.93;;;;;;;9.08;64.35;97736.13;4369139;32;20094;-82
2023/01/16 04:07:51;;;;;;;29.15;12.50;;;;;;;9.18;64.08;97740.69;4376475;32;20115;-83
2023/01/16 04:13:58;;;;;;;29.27;11.20;;;;;;;9.26;63.73;97734.91;4346738;33;20504;-82
2023/01/16 04:16:23;;;;;;;26.80;11.60;;;;;;;9.07;63.86;97726.56;4346858;33;20099;-82
2023/01/16 04:19:31;;;;;;;27.37;11.43;;;;;;;9.23;63.48;97721.97;4346727;33;20171;-84
2023/01/16 04:22:19;;;;;;;24.45;10.52;;;;;;;9.28;63.44;97714.63;4344165;33;20181;-84
2023/01/16 04:25:07;;;;;;;25.52;10.52;;;;;;;9.36;63.13;97703.59;4317112;33;20162;-84
2023/01/16 04:27:33;;;;;;;25.35;10.95;;;;;;;9.37;63.00;97700.88;4316887;33;20491;-82
2023/01/16 04:29:59;;;;;;;26.35;10.65;;;;;;;9.25;63.13;97699.91;4317251;33;20132;-82
2023/01/16 04:32:24;;;;;;;24.63;10.30;;;;;;;9.28;63.08;97690.97;4317041;33;20610;-81
2023/01/16 04:34:50;;;;;;;24.90;10.23;;;;;;;9.31;62.93;97682.91;4317048;33;20396;-82
2023/01/16 04:37:16;;;;;;;23.73;10.10;;;;;;;9.38;62.71;97684.16;4316755;33;20130;-82
2023/01/16 04:39:42;;;;;;;21.12;9.27;;;;;;;9.43;62.48;97681.22;4331957;33;20412;-82
2023/01/16 04:42:08;;;;;;;22.95;9.85;;;;;;;9.36;62.47;97688.66;4346539;33;20107;-82
2023/01/16 04:44:33;;;;;;;22.23;9.05;;;;;;;9.44;62.37;97690.78;4390168;32;20567;-82
2023/01/16 04:46:59;;;;;;;20.60;8.57;;;;;;;9.43;62.38;97689.13;4393679;32;20135;-82
2023/01/16 04:49:24;;;;;;;21.62;9.00;;;;;;;9.47;62.36;97680.06;4406137;32;20211;-82
2023/01/16 04:51:49;;;;;;;20.17;8.55;;;;;;;9.47;62.34;97668.72;4406256;32;20133;-82
2023/01/16 04:54:17;;;;;;;19.60;7.93;;;;;;;9.47;62.32;97669.56;4406674;32;20165;-82
2023/01/16 04:56:42;;;;;;;18.80;7.90;;;;;;;9.49;62.32;97666.84;4423910;32;20090;-82
2023/01/16 04:59:09;;;;;;;18.10;7.55;;;;;;;9.52;62.24;97666.59;4425871;32;20472;-82
2023/01/16 05:01:36;;;;;;;17.60;8.05;;;;;;;9.50;62.26;97663.25;4424536;32;20141;-82
2023/01/16 05:04:02;;;;;;;18.08;7.47;;;;;;;9.40;62.25;97661.22;4425772;32;20124;-82
2023/01/16 05:06:27;;;;;;;16.92;6.78;;;;;;;9.07;62.11;97658.25;4424601;32;20089;-82
2023/01/16 05:08:53;;;;;;;18.00;6.75;;;;;;;9.25;61.76;97654.37;4425599;32;20457;-82
2023/01/16 05:11:18;;;;;;;16.60;6.57;;;;;;;9.24;61.70;97655.34;4440163;32;20147;-82
2023/01/16 05:13:43;;;;;;;15.93;6.75;;;;;;;9.00;62.19;97645.53;4441014;32;20094;-81
2023/01/16 05:16:09;;;;;;;17.10;7.05;;;;;;;8.96;62.41;97648.44;4440955;32;20097;-82
2023/01/16 05:18:34;;;;;;;16.87;6.95;;;;;;;9.11;62.10;97644.81;4440823;32;20149;-81
2023/01/16 05:21:00;;;;;;;17.95;7.05;;;;;;;9.20;61.85;97632.84;4441088;32;20454;-83
2023/01/16 05:23:26;;;;;;;17.40;7.35;;;;;;;8.61;63.16;97646.34;4440941;32;20136;-83
2023/01/16 05:25:51;;;;;;;16.85;7.55;;;;;;;8.83;62.90;97648.44;4414127;32;20085;-83
2023/01/16 05:28:16;;;;;;;19.08;7.95;;;;;;;8.95;62.55;97650.25;4440739;32;20117;-83
2023/01/16 05:30:42;;;;;;;16.52;6.97;;;;;;;9.00;62.41;97647.31;4441033;32;20112;-83
2023/01/16 05:33:08;;;;;;;20.40;7.97;;;;;;;8.98;62.40;97639.53;4440988;32;20151;-82
2023/01/16 05:35:33;;;;;;;18.02;7.90;;;;;;;8.88;62.77;97641.06;4440785;32;20343;-83
2023/01/16 05:37:58;;;;;;;18.45;8.13;;;;;;;8.92;62.70;97639.09;4426945;32;20270;-82
2023/01/16 05:40:24;;;;;;;20.33;8.25;;;;;;;8.91;62.76;97632.16;4440741;32;20101;-82
2023/01/16 05:42:49;;;;;;;18.98;8.25;;;;;;;9.00;62.42;97632.41;4440739;32;20119;-83
2023/01/16 05:45:15;;;;;;;20.45;7.75;;;;;;;8.95;62.57;97645.00;4426781;32;20195;-83
2023/01/16 05:47:40;;;;;;;18.15;7.95;;;;;;;9.10;62.31;97643.13;4426469;32;20117;-83
2023/01/16 05:50:08;;;;;;;20.70;9.23;;;;;;;9.03;62.41;97645.31;4426644;32;20424;-83
2023/01/16 05:52:35;;;;;;;21.87;8.23;;;;;;;9.12;62.32;97638.63;4440794;32;20089;-83
2023/01/16 05:55:24;;;;;;;19.75;8.60;;;;;;;9.28;62.08;97638.41;4426692;32;20085;-84
2023/01/16 05:58:08;;;;;;;20.48;9.02;;;;;;;9.30;61.94;97648.84;4440809;32;20105;-84
2023/01/16 06:00:34;;;;;;;18.58;7.72;;;;;;;9.28;62.00;97645.47;4440918;32;20094;-83
2023/01/16 06:03:09;;;;;;;19.83;8.27;;;;;;;9.31;62.00;97643.47;4426522;32;20147;-83
2023/01/16 06:05:35;;;;;;;19.12;7.95;;;;;;;9.32;61.97;97649.56;4440246;32;20081;-83
2023/01/16 06:08:02;;;;;;;23.38;9.48;;;;;;;9.31;61.77;97646.09;4401183;32;20132;-82
2023/01/16 06:10:28;;;;;;;25.23;10.27;;;;;;;9.39;61.42;97651.69;4426743;32;20223;-82
2023/01/16 06:12:54;;;;;;;23.25;10.88;;;;;;;9.41;61.34;97644.53;4440666;32;20104;-83
2023/01/16 06:15:20;;;;;;;26.58;11.20;;;;;;;9.34;61.56;97642.41;4440696;32;20117;-83
2023/01/16 06:17:45;;;;;;;30.33;11.77;;;;;;;9.31;61.75;97643.47;4440550;32;20109;-82
2023/01/16 06:20:11;;;;;;;89.07;17.10;;;;;;;9.18;62.33;97640.00;4413873;32;20109;-83
2023/01/16 06:22:37;;;;;;;206.50;23.62;;;;;;;9.11;62.63;97636.91;4440599;32;20123;-83
2023/01/16 06:25:02;;;;;;;251.37;27.52;;;;;;;8.94;63.25;97645.09;4440523;32;20250;-83
2023/01/16 06:27:28;;;;;;;231.07;28.00;;;;;;;8.35;65.46;97648.00;4440412;32;20157;-82
2023/01/16 06:29:53;;;;;;;181.20;25.40;;;;;;;8.64;64.60;97633.88;4426487;32;20355;-83
2023/01/16 06:32:19;;;;;;;363.98;37.40;;;;;;;8.77;63.98;97627.81;4440479;32;20089;-82
2023/01/16 06:34:44;;;;;;;64.35;20.35;;;;;;;8.56;65.08;97628.28;4440548;32;20106;-80
2023/01/16 06:37:10;;;;;;;214.38;27.80;;;;;;;8.21;66.20;97625.28;4440520;32;20452;-83
2023/01/16 06:39:35;;;;;;;389.15;36.45;;;;;;;8.48;65.41;97627.94;4426396;32;20135;-83
2023/01/16 06:42:03;;;;;;;167.80;26.27;;;;;;;8.52;65.44;97634.69;4426355;32;20157;-83
2023/01/16 06:44:28;;;;;;;135.02;25.23;;;;;;;8.57;65.01;97613.38;4426762;32;20152;-83
2023/01/16 06:46:54;;;;;;;227.48;28.17;;;;;;;8.17;66.18;97624.63;4440164;32;20424;-83
2023/01/16 06:49:19;;;;;;;111.47;23.45;;;;;;;7.87;67.79;97625.59;4440525;32;20441;-82
2023/01/16 06:51:47;;;;;;;146.20;24.73;;;;;;;8.18;66.69;97626.31;4440229;32;20124;-83
2023/01/16 06:54:13;;;;;;;597.67;50.58;;;;;;;8.02;67.35;97621.19;4426429;32;20109;-84
2023/01/16 06:56:38;;;;;;;708.65;57.83;;;;;;;7.06;70.85;97623.50;4440326;32;20102;-82
2023/01/16 06:59:03;;;;;;;96.50;22.37;;;;;;;6.83;71.66;97635.31;4439890;32;20227;-79
2023/01/16 07:01:29;;;;;;;50.30;17.33;;;;;;;7.77;68.33;97627.12;4439960;32;20085;-81
2023/01/16 07:03:54;;;;;;;43.80;16.67;;;;;;;7.80;68.15;97632.19;4432813;32;226437;-81
2023/01/16 07:06:20;;;;;;;47.60;17.67;;;;;;;8.13;67.10;97630.16;4426314;32;20081;-83
2023/01/16 07:08:48;;;;;;;70.22;19.40;;;;;;;8.19;67.09;97619.25;4440192;32;20472;-85
2023/01/16 07:11:14;;;;;;;149.27;23.00;;;;;;;8.37;66.39;97612.84;4426501;32;20082;-83
2023/01/16 07:13:39;;;;;;;153.85;26.52;;;;;;;8.49;66.08;97613.88;4440194;32;20319;-82
2023/01/16 07:24:21;;;;;;;199.05;26.90;;;;;;;8.77;65.44;97626.03;4428283;32;20543;-82
2023/01/16 07:26:50;;;;;;;45.05;17.85;;;;;;;8.67;65.39;97614.44;4426147;32;20449;-82
2023/01/16 07:29:16;;;;;;;43.30;18.40;;;;;;;8.88;64.62;97619.22;4426318;32;20487;-82
2023/01/16 07:31:41;;;;;;;46.85;18.55;;;;;;;8.86;64.61;97611.44;4440320;32;20085;-83
2023/01/16 07:34:06;;;;;;;41.05;17.45;;;;;;;8.91;64.63;97613.78;4440203;32;20111;-83
2023/01/16 07:36:32;;;;;;;33.38;15.43;;;;;;;8.79;64.91;97621.53;4440262;32;20120;-82
2023/01/16 07:38:57;;;;;;;35.00;15.10;;;;;;;8.85;64.24;97609.78;4440147;32;20323;-84
2023/01/16 07:41:23;;;;;;;34.05;15.57;;;;;;;8.90;64.05;97604.22;4439978;32;20082;-82
2023/01/16 07:43:48;;;;;;;35.63;15.15;;;;;;;8.89;63.76;97594.66;4439872;32;20429;-78
2023/01/16 07:46:14;;;;;;;34.75;15.45;;;;;;;8.99;63.50;97582.59;4439788;32;20437;-83
2023/01/16 07:48:39;;;;;;;30.27;14.32;;;;;;;9.04;63.25;97580.50;4439672;32;20433;-82
2023/01/16 07:51:04;;;;;;;40.78;16.35;;;;;;;9.09;63.04;97585.44;4439769;32;20139;-83
2023/01/16 07:53:30;;;;;;;36.33;15.52;;;;;;;8.97;63.07;97576.59;4439873;32;20081;-80
2023/01/16 07:55:58;;;;;;;31.90;14.52;;;;;;;8.08;65.20;97572.75;4425661;32;20134;-81
2023/01/16 07:58:24;;;;;;;31.73;14.18;;;;;;;8.03;65.81;97561.69;4425897;32;20117;-82
2023/01/16 08:00:52;;;;;;;32.42;13.95;;;;;;;8.54;64.49;97559.31;4439772;32;20081;-81
2023/01/16 08:03:18;;;;;;;31.58;13.65;;;;;;;8.50;64.55;97562.22;4439732;32;20457;-81
2023/01/16 08:05:44;;;;;;;33.60;14.05;;;;;;;8.70;63.84;97543.38;4439547;32;20084;-82
2023/01/16 08:08:10;;;;;;;30.33;13.32;;;;;;;8.70;63.90;97538.13;4439313;32;20093;-81
2023/01/16 08:10:35;;;;;;;23.67;10.90;;;;;;;8.78;63.76;97529.72;4425520;32;20124;-81
2023/01/16 08:13:01;;;;;;;29.15;11.85;;;;;;;8.38;64.60;97538.44;4439670;32;20085;-81
2023/01/16 08:15:26;;;;;;;29.65;12.07;;;;;;;8.49;63.69;97534.28;4439622;32;20155;-81
2023/01/16 08:17:52;;;;;;;29.87;12.73;;;;;;;8.41;64.34;97516.41;4439750;32;20117;-81
2023/01/16 08:20:17;;;;;;;34.65;13.23;;;;;;;8.30;64.56;97519.72;4439561;32;20082;-82
2023/01/16 08:22:47;;;;;;;31.00;13.48;;;;;;;7.80;66.09;97522.06;4425580;32;20093;-83
2023/01/16 08:25:14;;;;;;;33.53;14.18;;;;;;;8.29;64.75;97507.56;4439484;32;20127;-81
2023/01/16 08:27:39;;;;;;;30.20;12.85;;;;;;;8.54;64.26;97504.19;4425198;32;20152;-81
2023/01/16 08:30:06;;;;;;;33.00;14.57;;;;;;;8.54;64.19;97503.34;4441088;32;20176;-81
2023/01/16 08:32:31;;;;;;;34.35;14.75;;;;;;;8.12;65.07;97499.97;4441296;32;20554;-81
2023/01/16 08:34:57;;;;;;;33.33;14.40;;;;;;;8.56;64.02;97497.03;4427499;32;20106;-81
2023/01/16 08:37:22;;;;;;;36.08;14.75;;;;;;;8.68;63.98;97490.12;4441089;32;20098;-81
2023/01/16 08:39:47;;;;;;;34.55;13.57;;;;;;;8.74;63.66;97492.31;4427157;32;20089;-81
2023/01/16 08:53:09;;;;;;;31.25;14.30;;;;;;;8.86;63.12;97453.88;4441132;32;20115;-81
2023/01/16 08:55:34;;;;;;;31.92;14.00;;;;;;;8.93;62.86;97449.06;4441185;32;20377;-81
2023/01/16 08:58:00;;;;;;;30.48;13.15;;;;;;;8.96;62.47;97439.19;4427059;32;20150;-81
2023/01/16 09:00:26;;;;;;;29.65;14.10;;;;;;;8.99;62.43;97438.13;4441238;32;20123;-81
2023/01/16 09:02:53;;;;;;;31.37;14.70;;;;;;;9.06;62.40;97434.13;4427199;32;20081;-81
2023/01/16 09:05:19;;;;;;;33.30;15.30;;;;;;;9.03;61.95;97418.56;4441132;32;20214;-81
2023/01/16 09:07:44;;;;;;;32.22;13.45;;;;;;;8.73;63.32;97425.03;4427037;32;20097;-81
2023/01/16 09:10:11;;;;;;;32.15;14.23;;;;;;;8.49;63.97;97424.91;4440843;32;20115;-81
2023/01/16 09:15:20;;;;;;;31.50;14.38;;;;;;;8.91;62.29;97404.50;4429162;32;20128;-81
2023/01/16 09:17:46;;;;;;;34.03;14.55;;;;;;;8.93;62.28;97404.41;4438709;32;20361;-79
2023/01/16 09:20:11;;;;;;;34.65;14.30;;;;;;;8.54;63.61;97393.09;4408888;32;20145;-79
2023/01/16 09:22:37;;;;;;;33.70;14.40;;;;;;;8.81;62.64;97391.19;4425478;32;20430;-80
2023/01/16 09:25:02;;;;;;;33.00;16.00;;;;;;;8.86;62.48;97380.34;4425616;32;20108;-81
2023/01/16 09:27:28;;;;;;;32.30;14.55;;;;;;;8.91;62.28;97374.78;4425395;32;20086;-82
2023/01/16 09:29:53;;;;;;;29.80;13.57;;;;;;;8.66;63.14;97368.62;4411679;32;20107;-81
2023/01/16 09:32:19;;;;;;;34.13;15.13;;;;;;;8.84;62.62;97353.38;4425387;32;20101;-79
2023/01/16 09:34:45;;;;;;;35.78;14.02;;;;;;;8.96;62.38;97341.16;4425485;32;20094;-81
2023/01/16 09:37:10;;;;;;;32.17;13.80;;;;;;;9.00;62.39;97346.09;4425617;32;20113;-81
2023/01/16 09:39:36;;;;;;;35.33;15.52;;;;;;;9.05;62.47;97338.69;4411103;32;20086;-81
2023/01/16 09:45:15;;;;;;;35.10;16.05;;;;;;;9.03;62.66;97324.00;4425478;32;20523;-81
2023/01/16 09:47:42;;;;;;;35.60;16.02;;;;;;;9.15;62.43;97304.72;4411723;32;20123;-80
2023/01/16 09:50:42;;;;;;;35.93;15.80;;;;;;;9.06;62.68;97300.16;4422447;32;20472;-81
2023/01/16 09:58:49;;;;;;;39.13;16.40;;;;;;;9.14;62.61;97284.66;4429058;32;20162;-82
2023/01/16 10:01:20;;;;;;;38.42;16.00;;;;;;;8.17;65.04;97288.00;4426841;32;20680;-81
2023/01/16 10:03:46;;;;;;;35.05;14.85;;;;;;;8.65;64.13;97280.31;4426869;32;20206;-82
2023/01/16 10:06:20;;;;;;;37.13;16.25;;;;;;;8.73;63.96;97279.75;4440607;32;20101;-82
2023/01/16 10:08:51;;;;;;;34.50;14.77;;;;;;;7.92;65.90;97267.84;4440711;32;20076;-82
2023/01/16 10:11:50;;;;;;;35.85;13.90;;;;;;;8.22;65.59;97259.69;4426716;32;20441;-83
2023/01/16 10:14:38;;;;;;;33.28;14.70;;;;;;;8.53;64.83;97257.56;4412312;32;20105;-82
2023/01/16 10:17:38;;;;;;;37.08;14.32;;;;;;;8.33;65.33;97246.66;4440710;32;20094;-82
2023/01/16 10:20:41;;;;;;;35.45;15.10;;;;;;;8.41;65.31;97244.34;4440736;32;20115;-82
2023/01/16 10:23:06;;;;;;;36.00;16.48;;;;;;;8.68;64.62;97235.47;4440612;32;20093;-80
2023/01/16 10:26:11;;;;;;;35.33;15.35;;;;;;;8.70;64.44;97224.88;4440602;32;20154;-81
2023/01/16 10:28:55;;;;;;;36.30;15.32;;;;;;;8.63;64.59;97225.31;4437279;32;20132;-81
2023/01/16 10:31:23;;;;;;;33.83;14.45;;;;;;;8.76;64.38;97209.50;4426614;32;20109;-81
2023/01/16 10:34:11;;;;;;;40.35;16.48;;;;;;;8.83;64.16;97204.66;4438997;32;20119;-80
2023/01/16 10:36:41;;;;;;;36.05;15.80;;;;;;;8.83;64.33;97194.16;4405234;32;20131;-81
2023/01/16 10:39:09;;;;;;;36.05;16.65;;;;;;;8.61;64.79;97200.94;4411240;32;20128;-80
2023/01/16 10:50:01;;;;;;;33.65;15.27;;;;;;;8.84;64.30;97175.63;4413221;32;20550;-81
2023/01/16 10:52:26;;;;;;;35.35;15.75;;;;;;;8.93;63.90;97168.88;4411090;32;20101;-81
2023/01/16 10:54:56;;;;;;;35.15;15.70;;;;;;;8.94;63.76;97164.47;4411112;32;20094;-82
2023/01/16 10:57:22;;;;;;;33.58;14.73;;;;;;;8.95;63.86;97153.84;4411392;32;20090;-81
2023/01/16 10:59:50;;;;;;;35.53;16.05;;;;;;;9.00;63.42;97142.97;4425197;32;20120;-81
2023/01/16 11:02:24;;;;;;;37.17;15.63;;;;;;;8.94;63.43;97140.81;4424745;32;20511;-81
2023/01/16 11:04:49;;;;;;;35.10;13.93;;;;;;;8.80;63.87;97132.16;4411915;32;20090;-81
2023/01/16 11:07:17;;;;;;;35.50;15.25;;;;;;;8.87;63.88;97126.50;4424767;32;20440;-82
2023/01/16 11:09:45;;;;;;;38.00;16.33;;;;;;;8.98;63.59;97116.00;4424764;32;20127;-81
2023/01/16 11:18:28;;;;;;;34.70;15.88;;;;;;;8.97;64.05;97109.09;4413209;32;20100;-81
2023/01/16 11:20:53;;;;;;;37.13;16.05;;;;;;;9.04;63.71;97105.88;4424908;32;20098;-82
2023/01/16 11:23:22;;;;;;;40.00;16.48;;;;;;;8.91;63.83;97093.78;4424817;32;20089;-82
2023/01/16 11:25:49;;;;;;;35.63;16.27;;;;;;;8.95;63.26;97093.44;4410855;32;20089;-82
2023/01/16 11:28:42;;;;;;;37.63;15.77;;;;;;;8.90;63.45;97079.81;4411158;32;20430;-81
2023/01/16 11:31:14;;;;;;;35.58;15.30;;;;;;;9.02;63.20;97080.66;4422215;32;20097;-81
2023/01/16 11:33:54;;;;;;;37.17;14.75;;;;;;;8.86;63.54;97067.84;4418947;32;20102;-82
2023/01/16 11:36:21;;;;;;;36.00;15.23;;;;;;;9.05;63.28;97065.50;4411278;32;20078;-81
2023/01/16 11:38:48;;;;;;;39.67;15.65;;;;;;;9.07;63.25;97057.53;4410842;32;20073;-81
2023/01/16 11:41:18;;;;;;;35.75;15.45;;;;;;;9.07;63.36;97054.91;4411033;32;20563;-82
2023/01/16 11:46:27;;;;;;;35.92;16.02;;;;;;;8.94;63.74;97044.47;4424675;32;20203;-80
2023/01/16 11:48:55;;;;;;;35.67;15.77;;;;;;;9.18;63.29;97051.47;4424433;32;20342;-80
2023/01/16 11:51:25;;;;;;;32.83;15.02;;;;;;;9.24;63.21;97030.78;4410469;32;20094;-80
2023/01/16 11:53:52;;;;;;;38.22;16.23;;;;;;;9.29;62.75;97035.72;4410735;32;20123;-79
2023/01/16 11:56:29;;;;;;;36.22;15.32;;;;;;;9.28;62.86;97026.13;4410328;32;20085;-79
2023/01/16 11:59:23;;;;;;;34.38;15.98;;;;;;;9.20;63.08;97010.97;4424412;32;20157;-79
2023/01/16 12:05:53;;;;;;;33.90;14.87;;;;;;;9.14;63.33;96998.31;4423716;32;20642;-79
2023/01/16 12:07:38;;;;;;;32.97;13.88;;;;;;;9.23;63.22;96991.50;4424224;32;20090;-79
2023/01/16 12:10:29;;;;;;;32.70;15.30;;;;;;;9.17;63.26;96991.97;4410695;32;20078;-79
2023/01/16 12:16:06;;;;;;;35.33;15.52;;;;;;;9.05;63.52;96967.50;4412557;32;20107;-82
2023/01/16 12:19:10;;;;;;;34.10;12.63;;;;;;;8.93;63.91;96965.84;4424170;32;20420;-80
2023/01/16 12:21:48;;;;;;;33.67;14.60;;;;;;;8.85;64.20;96956.75;4416977;32;20510;-80
2023/01/16 12:24:16;;;;;;;42.45;16.27;;;;;;;8.85;64.36;96951.50;4424142;32;20250;-82
2023/01/16 12:26:50;;;;;;;35.80;14.65;;;;;;;8.74;64.80;96940.16;4424049;32;20445;-81
2023/01/16 12:29:24;;;;;;;34.53;15.55;;;;;;;8.82;64.79;96938.59;4423985;32;20139;-81
2023/01/16 12:32:08;;;;;;;35.88;15.32;;;;;;;8.88;64.59;96923.34;4424124;32;20100;-81
2023/01/16 12:34:56;;;;;;;35.40;14.77;;;;;;;8.91;64.57;96930.97;4410334;32;20149;-81
2023/01/16 12:37:39;;;;;;;36.35;14.90;;;;;;;8.90;64.46;96927.50;4424098;32;20090;-81
2023/01/16 12:40:23;;;;;;;35.38;15.43;;;;;;;8.89;64.29;96922.37;4423905;32;20104;-81
2023/01/16 12:43:23;;;;;;;37.75;15.95;;;;;;;8.80;64.61;96927.38;4423832;32;20112;-80
2023/01/16 12:45:57;;;;;;;37.93;15.60;;;;;;;8.75;64.92;96916.41;4420153;32;20438;-81
2023/01/16 12:48:36;;;;;;;37.92;15.93;;;;;;;8.55;65.47;96914.47;4409915;32;20185;-81
2023/01/16 12:51:10;;;;;;;;;;;;;;;8.58;65.57;96909.00;4410455;32;20069;-82